Time;durP1;ratioP1;P1;durP2;ratioP2;P2;SDS_P1;SDS_P2;PMS_P1;PMS_P2;Temp;Humidity;BMP_temperature;BMP_pressure;BME280_temperature;BME280_humidity;BME280_pressure;Samples;Min_cycle;Max_cycle;Signal;HPM_P1;HPM_P2
2023/06/23 00:02:16;;;;;;;;;9.67;8.67;;;;;19.27;97.06;102106.25;5076524;27;45552;-78
2023/06/23 00:04:41;;;;;;;;;11.00;8.67;;;;;19.14;96.77;102091.88;5071266;27;45361;-78
2023/06/23 00:07:07;;;;;;;;;8.67;7.67;;;;;19.16;96.91;102093.50;5078615;27;45203;-78
2023/06/23 00:09:32;;;;;;;;;10.00;9.00;;;;;19.19;95.27;102108.53;5078948;27;45303;-78
2023/06/23 00:11:58;;;;;;;;;11.67;8.67;;;;;19.00;96.83;102087.34;5099833;27;45425;-78
2023/06/23 00:14:23;;;;;;;;;7.33;6.00;;;;;19.13;96.38;102099.06;5059762;27;45381;-78
2023/06/23 00:16:50;;;;;;;;;11.33;11.33;;;;;19.08;95.10;102098.44;5095963;27;46999;-78
2023/06/23 00:19:16;;;;;;;;;11.00;11.00;;;;;19.12;96.90;102109.84;5070803;27;45338;-78
2023/06/23 00:21:44;;;;;;;;;11.33;10.33;;;;;19.11;97.58;102113.50;5071899;27;45527;-77
2023/06/23 00:24:11;;;;;;;;;9.67;9.33;;;;;19.07;96.33;102120.03;5074352;27;45604;-78
2023/06/23 00:26:37;;;;;;;;;10.67;9.67;;;;;18.95;96.34;102099.31;5078669;27;45448;-78
2023/06/23 00:29:04;;;;;;;;;9.00;9.00;;;;;19.04;98.28;102115.69;5072739;27;45429;-78
2023/06/23 00:31:30;;;;;;;;;9.00;9.00;;;;;18.91;96.28;102095.13;5074389;27;45673;-78
2023/06/23 00:33:55;;;;;;;;;11.67;9.67;;;;;19.03;97.86;102113.13;5101765;27;45466;-78
2023/06/23 00:36:21;;;;;;;;;9.67;8.67;;;;;18.86;97.86;102095.38;5069305;27;48195;-78
2023/06/23 00:38:46;;;;;;;;;9.33;8.33;;;;;19.00;97.95;102116.00;5074078;27;45226;-78
2023/06/23 00:41:11;;;;;;;;;9.33;9.33;;;;;18.95;99.46;102110.91;5080524;27;45388;-78
2023/06/23 00:43:37;;;;;;;;;9.00;9.00;;;;;18.92;100.00;102108.41;5071054;27;45299;-78
2023/06/23 00:46:17;;;;;;;;;9.00;7.33;;;;;18.90;100.00;102110.34;5072770;27;46349;-78
2023/06/23 00:48:42;;;;;;;;;10.00;9.00;;;;;18.82;100.00;102101.88;5068530;27;45294;-77
2023/06/23 00:51:08;;;;;;;;;5.00;5.00;;;;;18.85;100.00;102111.56;5106423;27;45475;-78
2023/06/23 00:53:34;;;;;;;;;9.33;7.67;;;;;18.83;100.00;102114.34;5076171;27;45405;-78
2023/06/23 00:56:00;;;;;;;;;7.33;7.33;;;;;18.73;100.00;102102.44;5108918;27;46760;-78
2023/06/23 00:58:27;;;;;;;;;10.33;9.00;;;;;18.68;100.00;102101.88;5070486;27;45270;-77
2023/06/23 01:00:54;;;;;;;;;10.33;9.00;;;;;18.60;100.00;102102.31;5067815;27;45241;-77
2023/06/23 01:03:20;;;;;;;;;7.67;7.00;;;;;18.62;100.00;102107.56;5077448;27;47943;-77
2023/06/23 01:05:49;;;;;;;;;8.67;7.67;;;;;18.59;100.00;102113.97;5072064;27;46159;-78
2023/06/23 01:08:20;;;;;;;;;12.33;11.67;;;;;18.54;100.00;102116.09;5076835;27;45398;-78
2023/06/23 01:11:01;;;;;;;;;8.67;7.33;;;;;18.53;100.00;102127.75;5066858;27;45632;-78
2023/06/23 01:13:37;;;;;;;;;8.33;7.33;;;;;18.52;100.00;102117.16;5075621;27;45801;-78
2023/06/23 01:16:30;;;;;;;;;8.33;8.33;;;;;18.46;100.00;102112.09;5069452;27;46053;-78
2023/06/23 01:18:58;;;;;;;;;11.00;10.00;;;;;18.49;100.00;102125.31;5076669;27;45754;-78
2023/06/23 01:22:06;;;;;;;;;8.00;8.00;;;;;18.45;100.00;102121.09;5065380;27;45477;-78
2023/06/23 01:24:59;;;;;;;;;10.67;9.00;;;;;18.27;100.00;102098.94;5066178;27;45409;-78
2023/06/23 01:27:57;;;;;;;;;7.00;7.00;;;;;18.41;100.00;102130.25;5067120;27;45633;-77
2023/06/23 01:30:27;;;;;;;;;10.67;10.67;;;;;18.39;100.00;102126.81;5067100;27;45247;-78
2023/06/23 01:32:58;;;;;;;;;10.00;9.67;;;;;18.39;100.00;102127.66;5101850;27;45294;-78
2023/06/23 01:35:30;;;;;;;;;12.67;11.33;;;;;18.35;100.00;102125.28;5068248;27;45343;-78
2023/06/23 01:38:04;;;;;;;;;14.00;14.00;;;;;18.34;100.00;102132.44;5066839;28;46564;-78
2023/06/23 01:40:32;;;;;;;;;14.00;12.33;;;;;18.30;100.00;102125.53;5067196;27;45425;-78
2023/06/23 01:43:00;;;;;;;;;16.33;13.00;;;;;18.31;100.00;102135.28;5060445;27;45260;-78
2023/06/23 01:45:29;;;;;;;;;12.00;12.00;;;;;18.34;100.00;102135.13;5072459;27;45435;-78
2023/06/23 01:47:58;;;;;;;;;12.00;12.00;;;;;18.34;100.00;102132.44;5070616;27;45422;-78
2023/06/23 01:50:24;;;;;;;;;16.00;12.33;;;;;18.33;100.00;102143.22;5074920;27;45250;-78
2023/06/23 01:52:53;;;;;;;;;12.67;12.67;;;;;18.29;100.00;102137.19;5066676;27;47022;-78
2023/06/23 01:55:21;;;;;;;;;10.33;10.33;;;;;18.26;100.00;102147.25;5072175;27;45250;-78
2023/06/23 01:57:48;;;;;;;;;14.00;14.00;;;;;18.18;100.00;102134.28;5069193;27;45436;-78
2023/06/23 02:00:18;;;;;;;;;12.33;12.33;;;;;18.22;100.00;102147.38;5067945;27;45453;-78
2023/06/23 02:02:47;;;;;;;;;16.67;14.00;;;;;18.22;100.00;102157.25;5064720;27;45507;-78
2023/06/23 02:05:14;;;;;;;;;16.00;12.67;;;;;18.22;100.00;102163.47;5069097;27;45306;-77
2023/06/23 02:07:43;;;;;;;;;14.33;12.67;;;;;18.18;100.00;102159.25;5067755;27;45597;-78
2023/06/23 02:10:09;;;;;;;;;15.33;15.33;;;;;18.16;100.00;102158.44;5072033;27;45332;-78
2023/06/23 02:12:39;;;;;;;;;13.00;13.00;;;;;18.14;100.00;102151.47;5067270;27;47113;-78
2023/06/23 02:15:06;;;;;;;;;13.00;12.67;;;;;18.01;100.00;102129.03;5075620;27;45394;-78
2023/06/23 02:17:33;;;;;;;;;12.00;11.33;;;;;18.09;100.00;102159.78;5072374;27;45305;-78
2023/06/23 02:20:00;;;;;;;;;12.33;12.33;;;;;17.98;100.00;102138.09;5073886;27;45606;-78
2023/06/23 02:22:28;;;;;;;;;14.33;13.33;;;;;18.04;100.00;102155.63;5076975;27;45370;-78
2023/06/23 02:24:55;;;;;;;;;13.00;13.00;;;;;18.00;100.00;102154.94;5078117;27;45250;-78
2023/06/23 02:27:21;;;;;;;;;10.00;10.00;;;;;18.03;100.00;102157.44;5074405;27;46341;-77
2023/06/23 02:29:49;;;;;;;;;12.00;12.00;;;;;18.02;100.00;102149.50;5076194;27;45374;-77
2023/06/23 02:32:17;;;;;;;;;12.67;12.00;;;;;18.01;100.00;102150.44;5106293;27;45233;-78
2023/06/23 02:34:49;;;;;;;;;13.00;11.00;;;;;18.00;100.00;102162.09;5076126;27;45594;-78
2023/06/23 02:37:20;;;;;;;;;11.67;11.67;;;;;17.97;100.00;102156.91;5070290;27;45462;-77
2023/06/23 02:39:51;;;;;;;;;10.00;10.00;;;;;18.01;100.00;102169.19;5073022;27;45265;-77
2023/06/23 02:42:21;;;;;;;;;13.67;11.00;;;;;17.91;100.00;102158.13;5080644;27;45339;-78
2023/06/23 02:44:57;;;;;;;;;16.00;13.33;;;;;17.96;100.00;102168.59;5079186;27;45242;-78
2023/06/23 02:47:24;;;;;;;;;12.00;10.00;;;;;17.80;100.00;102157.84;5074665;27;46072;-78
2023/06/23 02:49:56;;;;;;;;;10.33;10.00;;;;;17.90;100.00;102172.44;5066819;27;45267;-78
2023/06/23 02:52:25;;;;;;;;;8.67;8.67;;;;;17.84;100.00;102177.28;5073543;27;45687;-78
2023/06/23 02:54:54;;;;;;;;;13.33;9.67;;;;;17.83;100.00;102187.16;5079508;27;45598;-78
2023/06/23 02:57:23;;;;;;;;;11.33;9.33;;;;;17.86;100.00;102196.81;5077169;27;46099;-76
2023/06/23 02:59:51;;;;;;;;;7.33;7.33;;;;;17.84;100.00;102194.22;5066226;27;45397;-78
2023/06/23 03:02:22;;;;;;;;;10.00;9.33;;;;;17.84;100.00;102199.56;5078307;27;45345;-77
2023/06/23 03:04:48;;;;;;;;;10.00;8.33;;;;;17.81;100.00;102204.22;5072640;27;46035;-78
2023/06/23 03:07:15;;;;;;;;;10.67;8.67;;;;;17.77;100.00;102198.16;5074671;27;45389;-78
2023/06/23 03:09:42;;;;;;;;;9.00;7.00;;;;;17.74;100.00;102186.75;5078334;27;45409;-78
2023/06/23 03:12:08;;;;;;;;;12.00;8.67;;;;;17.72;100.00;102191.34;5080166;27;45511;-77
2023/06/23 03:14:34;;;;;;;;;10.00;9.00;;;;;17.77;100.00;102200.00;5070847;27;45420;-78
2023/06/23 03:17:15;;;;;;;;;10.67;7.67;;;;;17.64;100.00;102171.22;5069114;27;45400;-78
2023/06/23 03:19:52;;;;;;;;;9.67;9.33;;;;;17.76;100.00;102193.78;5071284;27;45504;-77
2023/06/23 03:22:27;;;;;;;;;10.67;9.00;;;;;17.69;100.00;102193.25;5073421;27;45565;-78
2023/06/23 03:24:56;;;;;;;;;10.33;10.33;;;;;17.69;100.00;102190.59;5072261;27;45421;-78
2023/06/23 03:27:26;;;;;;;;;13.00;10.33;;;;;17.69;100.00;102189.72;5072108;27;45334;-78
2023/06/23 03:30:07;;;;;;;;;10.00;8.67;;;;;17.70;100.00;102196.81;5074450;27;45373;-77
2023/06/23 03:32:39;;;;;;;;;10.67;10.67;;;;;17.49;100.00;102156.00;5071731;27;45266;-78
2023/06/23 03:35:10;;;;;;;;;11.00;11.00;;;;;17.63;100.00;102204.31;5078368;27;45309;-78
2023/06/23 03:37:41;;;;;;;;;14.00;12.67;;;;;17.60;100.00;102204.44;5066960;27;46088;-78
2023/06/23 03:40:13;;;;;;;;;12.00;10.33;;;;;17.60;100.00;102212.47;5067639;27;45475;-78
2023/06/23 03:42:47;;;;;;;;;10.33;9.33;;;;;17.39;100.00;102176.16;5065731;27;45362;-78
2023/06/23 03:45:16;;;;;;;;;10.67;10.33;;;;;17.58;100.00;102230.41;5062120;28;45285;-78
2023/06/23 03:47:45;;;;;;;;;10.33;10.33;;;;;17.54;100.00;102218.13;5069635;28;46007;-78
2023/06/23 03:50:16;;;;;;;;;9.67;9.00;;;;;17.42;100.00;102205.41;5071268;27;46130;-78
2023/06/23 03:52:43;;;;;;;;;10.33;9.33;;;;;17.47;100.00;102223.91;5077261;27;45682;-78
2023/06/23 03:55:11;;;;;;;;;13.33;11.33;;;;;17.43;100.00;102225.00;5079273;27;45471;-78
2023/06/23 03:57:39;;;;;;;;;15.67;11.00;;;;;17.43;100.00;102217.84;5080628;27;47329;-78
2023/06/23 04:00:06;;;;;;;;;13.33;12.00;;;;;17.37;100.00;102204.81;5065533;27;45469;-78
2023/06/23 04:02:34;;;;;;;;;10.33;8.00;;;;;17.40;100.00;102227.84;5077136;27;45320;-78
2023/06/23 04:05:02;;;;;;;;;14.67;11.67;;;;;17.36;100.00;102221.78;5073395;27;45759;-78
2023/06/23 04:07:29;;;;;;;;;11.33;11.33;;;;;17.36;100.00;102221.78;5077125;27;45646;-78
2023/06/23 04:10:00;;;;;;;;;10.00;10.00;;;;;17.32;100.00;102224.69;5071568;27;45301;-78
2023/06/23 04:12:27;;;;;;;;;10.33;8.67;;;;;17.39;100.00;102243.03;5064653;27;45265;-78
2023/06/23 04:14:54;;;;;;;;;10.00;7.33;;;;;17.40;100.00;102246.56;5073284;27;45358;-78
2023/06/23 04:17:24;;;;;;;;;12.33;9.00;;;;;17.29;100.00;102230.19;5094989;27;48340;-77
2023/06/23 04:19:57;;;;;;;;;11.33;9.67;;;;;17.40;100.00;102265.28;5074779;27;45281;-78
2023/06/23 04:22:23;;;;;;;;;8.67;8.67;;;;;17.42;100.00;102260.72;5077824;27;45315;-78
2023/06/23 04:24:50;;;;;;;;;10.00;9.00;;;;;17.38;100.00;102251.09;5069885;27;45863;-78
2023/06/23 04:27:18;;;;;;;;;9.00;9.00;;;;;17.42;100.00;102256.22;5068359;27;45612;-78
2023/06/23 04:29:46;;;;;;;;;12.67;11.00;;;;;17.45;100.00;102263.22;5073593;27;45326;-78
2023/06/23 04:32:13;;;;;;;;;8.67;8.67;;;;;17.45;100.00;102266.75;5077484;27;45464;-78
2023/06/23 04:34:39;;;;;;;;;11.67;9.67;;;;;17.39;100.00;102255.53;5066300;27;46310;-77
2023/06/23 04:37:29;;;;;;;;;10.67;10.67;;;;;17.43;100.00;102254.41;5071215;27;45563;-77
2023/06/23 04:39:59;;;;;;;;;8.33;7.67;;;;;17.45;100.00;102263.22;5076221;27;45485;-78
2023/06/23 04:42:29;;;;;;;;;9.67;8.67;;;;;17.48;100.00;102255.03;5072146;27;45246;-78
2023/06/23 04:44:58;;;;;;;;;14.67;11.67;;;;;17.52;100.00;102259.28;5071117;27;45568;-78
2023/06/23 04:47:28;;;;;;;;;8.00;8.00;;;;;17.55;100.00;102264.47;5068503;27;46193;-77
2023/06/23 04:49:58;;;;;;;;;13.00;12.67;;;;;17.58;100.00;102280.38;5068003;27;45466;-78
2023/06/23 04:52:26;;;;;;;;;10.00;9.00;;;;;17.55;100.00;102273.41;5068194;27;45420;-78
2023/06/23 04:54:56;;;;;;;;;10.67;9.33;;;;;17.62;100.00;102285.50;5075800;27;45421;-78
2023/06/23 04:57:27;;;;;;;;;11.33;10.00;;;;;17.61;100.00;102264.16;5076637;27;46825;-78
2023/06/23 04:59:56;;;;;;;;;8.33;7.67;;;;;17.58;100.00;102267.00;5064380;27;45567;-77
2023/06/23 05:02:25;;;;;;;;;9.00;8.67;;;;;17.74;100.00;102283.97;5073506;27;45417;-78
2023/06/23 05:04:51;;;;;;;;;9.00;8.00;;;;;17.75;100.00;102275.00;5064871;27;45314;-77
2023/06/23 05:07:18;;;;;;;;;10.67;9.67;;;;;17.68;100.00;102266.44;5077147;27;47300;-78
2023/06/23 05:09:48;;;;;;;;;9.00;9.00;;;;;17.80;100.00;102288.16;5073578;27;45292;-77
2023/06/23 05:12:16;;;;;;;;;9.00;8.67;;;;;17.82;100.00;102287.13;5069130;27;45208;-78
2023/06/23 05:14:43;;;;;;;;;9.33;9.33;;;;;17.82;100.00;102281.78;5068442;27;45323;-77
2023/06/23 05:17:11;;;;;;;;;9.00;8.00;;;;;17.98;100.00;102293.38;5071947;27;45417;-78
2023/06/23 05:19:38;;;;;;;;;7.67;7.00;;;;;17.99;100.00;102287.09;5064330;27;45458;-78
2023/06/23 05:22:08;;;;;;;;;9.00;9.00;;;;;18.07;100.00;102303.56;5100147;27;45532;-78
2023/06/23 05:24:37;;;;;;;;;10.33;8.67;;;;;18.02;100.00;102275.34;5066382;27;45430;-78
2023/06/23 05:27:07;;;;;;;;;10.00;9.00;;;;;18.12;100.00;102301.53;5064985;27;45290;-78
2023/06/23 05:29:37;;;;;;;;;8.67;8.67;;;;;18.19;100.00;102305.56;5065625;27;45381;-77
2023/06/23 05:32:06;;;;;;;;;9.00;9.00;;;;;18.22;100.00;102304.56;5072076;27;45204;-78
2023/06/23 05:34:32;;;;;;;;;8.00;8.00;;;;;18.26;100.00;102299.91;5071463;27;45288;-78
2023/06/23 05:37:01;;;;;;;;;9.33;8.33;;;;;18.33;100.00;102303.94;5074785;27;45508;-78
2023/06/23 05:39:28;;;;;;;;;11.67;10.00;;;;;18.43;100.00;102310.53;5075919;27;45283;-78
2023/06/23 05:41:54;;;;;;;;;11.00;10.67;;;;;18.54;100.00;102313.50;5074176;27;45440;-78
2023/06/23 05:44:19;;;;;;;;;8.00;8.00;;;;;18.61;100.00;102306.84;5068033;27;45282;-77
2023/06/23 05:46:48;;;;;;;;;12.33;11.33;;;;;18.49;100.00;102269.97;5074340;27;45811;-77
2023/06/23 05:49:18;;;;;;;;;11.33;10.00;;;;;18.68;100.00;102294.84;5074596;27;45543;-77
2023/06/23 05:51:53;;;;;;;;;12.00;9.00;;;;;18.80;100.00;102302.16;5076462;27;45548;-77
2023/06/23 05:54:21;;;;;;;;;16.00;13.00;;;;;18.81;99.74;102287.81;5069293;27;45239;-77
2023/06/23 05:56:54;;;;;;;;;10.67;9.67;;;;;18.87;100.00;102286.59;5083069;27;46362;-77
2023/06/23 05:59:28;;;;;;;;;10.33;9.33;;;;;18.93;100.00;102287.09;5062120;27;45251;-78
2023/06/23 06:01:58;;;;;;;;;11.67;10.67;;;;;19.10;100.00;102313.81;5072512;27;45319;-77
2023/06/23 06:04:29;;;;;;;;;8.33;7.67;;;;;19.20;97.51;102312.31;5068653;27;46033;-78
2023/06/23 06:06:57;;;;;;;;;12.00;9.67;;;;;19.23;97.71;102308.56;5067360;27;45530;-77
2023/06/23 06:09:26;;;;;;;;;11.67;8.67;;;;;19.30;98.23;102309.94;5076110;27;45398;-74
2023/06/23 06:11:53;;;;;;;;;7.00;7.00;;;;;19.32;97.82;102304.47;5070468;27;45367;-75
2023/06/23 06:14:20;;;;;;;;;10.67;8.67;;;;;19.44;96.36;102319.84;5076597;27;45455;-74
2023/06/23 06:16:47;;;;;;;;;12.33;9.67;;;;;19.52;99.20;102331.00;5071880;27;47869;-75
2023/06/23 06:19:16;;;;;;;;;5.00;5.00;;;;;19.55;94.53;102312.03;5071425;27;45403;-75
2023/06/23 06:21:43;;;;;;;;;7.67;7.67;;;;;19.63;95.90;102324.00;5067190;27;45378;-74
2023/06/23 06:24:11;;;;;;;;;9.00;7.00;;;;;19.74;94.87;102329.59;5073299;27;45474;-75
2023/06/23 06:26:36;;;;;;;;;8.33;8.00;;;;;19.75;94.13;102330.47;5078416;27;45325;-74
2023/06/23 06:29:05;;;;;;;;;6.33;5.67;;;;;19.85;92.98;102320.91;5074322;27;45262;-74
2023/06/23 06:31:32;;;;;;;;;10.67;9.67;;;;;19.93;94.02;102326.63;5067324;27;45566;-74
2023/06/23 06:34:00;;;;;;;;;10.00;8.67;;;;;19.95;92.33;102327.44;5069255;27;45264;-73
2023/06/23 06:36:29;;;;;;;;;10.00;10.00;;;;;20.10;94.19;102334.53;5070531;27;46925;-74
2023/06/23 06:38:57;;;;;;;;;8.67;8.67;;;;;20.23;94.86;102337.28;5073047;27;45478;-74
2023/06/23 06:41:23;;;;;;;;;8.67;8.33;;;;;20.30;91.41;102327.91;5066048;27;45462;-74
2023/06/23 06:43:49;;;;;;;;;5.00;5.00;;;;;20.40;88.84;102329.06;5068974;28;45253;-74
2023/06/23 06:46:16;;;;;;;;;6.00;6.00;;;;;20.50;89.44;102332.03;5070663;28;46948;-74
2023/06/23 06:48:45;;;;;;;;;7.00;6.00;;;;;20.56;87.77;102329.81;5078900;27;45460;-74
2023/06/23 06:51:12;;;;;;;;;10.67;9.67;;;;;20.63;89.00;102327.56;5102644;27;45467;-73
2023/06/23 06:53:38;;;;;;;;;7.33;7.33;;;;;20.70;89.03;102312.78;5070564;27;45540;-73
2023/06/23 06:56:04;;;;;;;;;6.67;6.67;;;;;20.88;88.43;102318.75;5074195;27;46123;-73
2023/06/23 06:58:30;;;;;;;;;8.33;8.00;;;;;20.96;87.44;102330.75;5083469;27;45414;-73
2023/06/23 07:00:58;;;;;;;;;8.33;6.67;;;;;21.09;87.09;102334.38;5072792;27;46040;-73
2023/06/23 07:03:24;;;;;;;;;11.33;6.33;;;;;21.20;87.82;102334.50;5097104;27;45703;-73
2023/06/23 07:05:50;;;;;;;;;6.00;6.00;;;;;21.16;84.87;102314.16;5061690;28;46302;-73
2023/06/23 07:08:15;;;;;;;;;4.00;4.00;;;;;21.33;85.33;102321.09;5071037;27;45575;-73
2023/06/23 07:10:41;;;;;;;;;6.33;6.33;;;;;21.38;84.34;102310.88;5062070;28;45554;-74
2023/06/23 07:13:06;;;;;;;;;11.00;11.00;;;;;21.47;83.77;102306.66;5061189;28;45425;-73
2023/06/23 07:15:31;;;;;;;;;10.33;9.00;;;;;21.54;83.51;102294.50;5081176;27;46104;-74
2023/06/23 07:17:57;;;;;;;;;14.33;8.00;;;;;21.75;83.43;102306.50;5064749;27;45238;-73
2023/06/23 07:20:22;;;;;;;;;7.67;7.00;;;;;21.86;83.30;102297.66;5067193;28;45749;-74
2023/06/23 07:22:48;;;;;;;;;10.00;6.33;;;;;22.03;83.23;102292.81;5065466;27;45440;-73
2023/06/23 07:25:14;;;;;;;;;7.00;6.00;;;;;22.14;83.12;102298.31;5068556;28;47920;-74
2023/06/23 07:27:39;;;;;;;;;8.00;6.33;;;;;22.24;81.40;102306.59;5075993;28;45203;-74
2023/06/23 07:30:05;;;;;;;;;6.33;6.33;;;;;22.34;79.94;102296.88;5073529;27;45735;-74
2023/06/23 07:32:31;;;;;;;;;10.00;7.33;;;;;22.41;78.37;102300.84;5076879;28;45536;-74
2023/06/23 07:34:56;;;;;;;;;8.33;8.00;;;;;22.46;78.59;102298.66;5062921;28;45992;-73
2023/06/23 07:37:22;;;;;;;;;6.67;6.33;;;;;22.53;77.40;102301.78;5067045;28;45587;-74
2023/06/23 07:39:47;;;;;;;;;8.33;4.00;;;;;22.68;76.88;102314.16;5072721;27;45528;-73
2023/06/23 07:42:13;;;;;;;;;7.00;7.00;;;;;22.78;77.00;102312.50;5073819;27;45365;-73
2023/06/23 07:44:38;;;;;;;;;6.00;5.33;;;;;22.89;77.77;102317.97;5080639;28;46160;-73
2023/06/23 07:47:04;;;;;;;;;8.67;6.67;;;;;22.94;75.55;102307.66;5060755;28;45500;-74
2023/06/23 07:49:30;;;;;;;;;6.33;6.33;;;;;23.05;75.41;102315.81;5069624;28;45536;-74
2023/06/23 07:52:00;;;;;;;;;6.33;5.00;;;;;23.16;73.68;102315.88;5064081;28;45479;-74
2023/06/23 07:54:29;;;;;;;;;4.33;4.33;;;;;23.31;75.76;102325.50;5066766;27;45572;-74
2023/06/23 07:56:55;;;;;;;;;5.33;5.33;;;;;23.44;75.62;102321.88;5066851;27;45632;-74
2023/06/23 07:59:21;;;;;;;;;9.00;7.00;;;;;23.55;74.38;102328.19;5074519;28;45287;-73
2023/06/23 08:01:46;;;;;;;;;7.33;6.00;;;;;23.71;74.31;102335.97;5074477;28;45595;-74
2023/06/23 08:04:11;;;;;;;;;8.00;6.00;;;;;23.83;71.46;102338.56;5071071;27;45302;-73
2023/06/23 08:06:37;;;;;;;;;9.00;8.33;;;;;23.92;70.71;102339.66;5069019;28;45315;-73
2023/06/23 08:09:02;;;;;;;;;7.33;6.33;;;;;24.00;70.71;102345.34;5065145;27;45381;-73
2023/06/23 08:11:27;;;;;;;;;3.67;3.67;;;;;24.07;70.99;102338.47;5069769;28;45425;-73
2023/06/23 08:13:54;;;;;;;;;7.00;7.00;;;;;24.15;71.05;102346.84;5060494;27;46476;-74
2023/06/23 08:16:20;;;;;;;;;7.67;5.33;;;;;24.17;70.68;102350.31;5077717;28;45293;-74
2023/06/23 08:18:45;;;;;;;;;4.33;4.33;;;;;24.18;70.53;102343.91;5080349;27;45343;-74
2023/06/23 08:21:11;;;;;;;;;7.00;7.00;;;;;24.29;70.33;102343.91;5077790;27;45390;-74
2023/06/23 08:23:36;;;;;;;;;6.00;5.00;;;;;24.43;69.40;102352.75;5063845;27;46059;-74
2023/06/23 08:26:01;;;;;;;;;6.00;6.00;;;;;24.56;70.95;102342.66;5061534;28;45421;-73
2023/06/23 08:28:28;;;;;;;;;6.00;6.00;;;;;24.76;71.65;102350.00;5076029;28;45385;-73
2023/06/23 08:30:54;;;;;;;;;4.33;4.00;;;;;24.78;66.07;102343.47;5079365;27;45455;-74
2023/06/23 08:33:19;;;;;;;;;6.00;5.00;;;;;24.88;68.85;102349.88;5076571;28;45360;-74
2023/06/23 08:35:45;;;;;;;;;10.67;5.00;;;;;24.78;66.41;102337.19;5066045;27;45455;-74
2023/06/23 08:38:14;;;;;;;;;3.67;3.67;;;;;24.97;67.66;102348.25;5070239;28;45419;-74
2023/06/23 08:40:41;;;;;;;;;6.67;4.67;;;;;25.21;65.69;102353.47;5078261;27;45831;-71
2023/06/23 08:43:09;;;;;;;;;5.00;5.00;;;;;25.23;67.14;102337.94;5076309;27;45529;-73
2023/06/23 08:45:41;;;;;;;;;4.67;4.33;;;;;25.47;66.00;102362.94;5060000;28;45350;-73
2023/06/23 08:48:07;;;;;;;;;4.00;4.00;;;;;25.55;62.49;102359.63;5063382;28;45260;-73
2023/06/23 08:50:35;;;;;;;;;4.00;4.00;;;;;25.47;62.25;102337.69;5066543;27;45626;-74
2023/06/23 08:53:00;;;;;;;;;8.33;5.00;;;;;25.64;61.52;102354.25;5067251;27;45443;-74
2023/06/23 08:55:27;;;;;;;;;3.00;3.00;;;;;25.72;61.90;102348.19;5069433;27;46971;-71
2023/06/23 08:57:52;;;;;;;;;7.00;6.00;;;;;25.95;61.14;102362.47;5063517;27;45314;-74
2023/06/23 09:00:18;;;;;;;;;5.00;5.00;;;;;26.05;62.23;102353.34;5075048;28;45400;-74
2023/06/23 09:02:44;;;;;;;;;4.33;4.00;;;;;26.19;60.75;102352.19;5060964;27;46251;-72
2023/06/23 09:05:09;;;;;;;;;4.33;4.33;;;;;26.47;61.90;102364.16;5059668;28;45386;-72
2023/06/23 09:07:35;;;;;;;;;5.00;4.33;;;;;26.55;59.02;102348.03;5061000;28;47020;-72
2023/06/23 09:10:00;;;;;;;;;7.33;4.67;;;;;26.73;58.89;102360.78;5058672;28;45265;-72
2023/06/23 09:12:26;;;;;;;;;4.67;3.67;;;;;26.78;57.52;102357.66;5062790;28;46140;-72
2023/06/23 09:14:52;;;;;;;;;3.00;1.00;;;;;26.86;56.94;102374.16;5059525;28;45276;-72
2023/06/23 09:17:19;;;;;;;;;4.00;3.00;;;;;26.89;56.80;102358.47;5067592;27;45342;-72
2023/06/23 09:19:49;;;;;;;;;3.33;2.00;;;;;27.02;56.02;102365.47;5070627;27;45577;-72
2023/06/23 09:22:18;;;;;;;;;3.00;2.00;;;;;27.01;53.10;102361.03;5063120;28;45659;-72
2023/06/23 09:24:44;;;;;;;;;2.67;2.67;;;;;26.97;54.78;102367.72;5065217;28;45307;-72
2023/06/23 09:27:10;;;;;;;;;4.67;3.00;;;;;27.04;54.84;102358.88;5070308;28;45527;-72
2023/06/23 09:29:38;;;;;;;;;2.00;2.00;;;;;26.99;52.78;102350.31;5074985;27;45675;-72
2023/06/23 09:32:04;;;;;;;;;4.67;3.67;;;;;27.18;54.89;102357.63;5071762;28;47244;-72
2023/06/23 09:34:34;;;;;;;;;3.00;3.00;;;;;27.24;48.64;102360.63;5062381;28;45235;-72
2023/06/23 09:37:08;;;;;;;;;4.00;3.00;;;;;27.27;52.52;102351.31;5077637;28;46023;-72
2023/06/23 09:39:38;;;;;;;;;2.67;2.67;;;;;27.35;50.05;102354.19;5067173;28;45498;-72
2023/06/23 09:42:11;;;;;;;;;6.00;2.00;;;;;27.53;50.99;102366.06;5069842;28;47958;-71
2023/06/23 09:44:39;;;;;;;;;2.00;2.00;;;;;27.63;51.16;102355.19;5072736;28;45563;-72
2023/06/23 09:47:05;;;;;;;;;3.00;3.00;;;;;27.75;52.00;102354.00;5063088;28;45188;-72
2023/06/23 09:49:40;;;;;;;;;3.67;3.00;;;;;27.82;51.09;102352.44;5068189;28;45476;-72
2023/06/23 09:52:07;;;;;;;;;2.00;1.33;;;;;27.93;52.71;102353.13;5070473;28;45352;-72
2023/06/23 09:54:37;;;;;;;;;2.33;2.33;;;;;27.98;49.37;102346.41;5076196;27;45429;-72
2023/06/23 09:57:05;;;;;;;;;2.67;2.00;;;;;28.08;49.37;102353.53;5077958;27;45243;-72
2023/06/23 09:59:31;;;;;;;;;2.33;1.00;;;;;28.20;49.09;102346.94;5073806;27;45567;-72
2023/06/23 10:01:56;;;;;;;;;3.00;3.00;;;;;28.28;47.67;102355.19;5068366;28;46136;-71
2023/06/23 10:04:30;;;;;;;;;3.67;2.33;;;;;28.37;48.09;102354.28;5062308;28;45383;-72
2023/06/23 10:06:56;;;;;;;;;2.67;2.00;;;;;28.47;49.58;102353.41;5066370;28;45234;-72
2023/06/23 10:09:24;;;;;;;;;3.00;3.00;;;;;28.53;48.91;102345.47;5082523;27;45390;-72
2023/06/23 10:11:49;;;;;;;;;2.67;2.67;;;;;28.59;49.41;102335.84;5079413;27;47184;-72
2023/06/23 10:14:15;;;;;;;;;2.33;2.33;;;;;28.71;48.26;102346.41;5064864;28;45313;-72
2023/06/23 10:16:45;;;;;;;;;2.67;2.67;;;;;28.64;47.04;102341.66;5065282;28;45386;-69
2023/06/23 10:19:12;;;;;;;;;3.00;3.00;;;;;28.74;48.34;102342.50;5075803;28;45472;-68
2023/06/23 10:21:39;;;;;;;;;3.33;3.00;;;;;28.92;48.05;102346.13;5074663;28;45478;-71
2023/06/23 10:24:18;;;;;;;;;4.33;4.33;;;;;28.99;48.76;102347.22;5071732;28;45562;-69
2023/06/23 10:26:45;;;;;;;;;4.67;3.00;;;;;29.04;48.54;102342.16;5071927;27;45244;-69
2023/06/23 10:29:13;;;;;;;;;4.67;4.00;;;;;29.07;46.71;102335.53;5070222;28;45579;-69
2023/06/23 10:31:40;;;;;;;;;3.00;3.00;;;;;29.21;47.95;102341.31;5069391;28;45862;-69
2023/06/23 10:34:11;;;;;;;;;4.00;4.00;;;;;29.19;46.28;102339.75;5070268;28;45418;-69
2023/06/23 10:36:40;;;;;;;;;2.00;2.00;;;;;29.19;46.02;102326.97;5067650;28;45380;-69
2023/06/23 10:39:07;;;;;;;;;4.33;2.67;;;;;29.16;46.35;102320.97;5060698;28;45424;-69
2023/06/23 10:41:34;;;;;;;;;6.00;4.67;;;;;29.25;47.38;102326.41;5061898;28;46568;-69
2023/06/23 10:44:01;;;;;;;;;4.00;3.00;;;;;29.34;46.95;102322.72;5061866;28;45265;-69
2023/06/23 10:46:27;;;;;;;;;4.33;4.33;;;;;29.21;45.77;102314.06;5067223;28;45326;-69
2023/06/23 10:48:53;;;;;;;;;2.67;2.67;;;;;29.31;46.73;102328.47;5071048;27;45330;-69
2023/06/23 10:51:19;;;;;;;;;3.33;3.33;;;;;29.39;47.72;102319.50;5068356;28;45448;-69
2023/06/23 10:53:57;;;;;;;;;3.00;2.00;;;;;29.59;48.31;102334.66;5061390;28;45433;-69
2023/06/23 10:56:32;;;;;;;;;4.00;4.00;;;;;29.68;47.30;102321.97;5065626;27;45187;-69
2023/06/23 10:58:58;;;;;;;;;2.67;2.67;;;;;29.57;44.09;102328.53;5068180;28;45241;-69
2023/06/23 11:01:26;;;;;;;;;4.67;3.33;;;;;29.51;46.39;102336.47;5064516;28;46310;-69
2023/06/23 11:03:55;;;;;;;;;3.67;3.00;;;;;29.59;45.33;102336.53;5061093;28;46965;-69
2023/06/23 11:06:34;;;;;;;;;3.33;3.33;;;;;29.69;44.80;102332.69;5065725;28;45473;-68
2023/06/23 11:09:01;;;;;;;;;8.00;6.00;;;;;29.86;44.30;102333.69;5085258;27;45229;-69
2023/06/23 11:11:31;;;;;;;;;5.33;4.00;;;;;30.04;43.97;102330.91;5062194;27;45254;-69
2023/06/23 11:13:56;;;;;;;;;2.00;2.00;;;;;30.20;46.15;102320.06;5065946;28;45540;-69
2023/06/23 11:16:34;;;;;;;;;4.33;4.33;;;;;30.40;44.93;102313.34;5074768;27;45196;-69
2023/06/23 11:19:02;;;;;;;;;3.33;2.00;;;;;30.67;46.16;102317.72;5069079;28;45445;-69
2023/06/23 11:21:27;;;;;;;;;5.00;5.00;;;;;30.66;46.79;102327.78;5078456;27;46964;-69
2023/06/23 11:24:18;;;;;;;;;6.00;4.33;;;;;30.87;46.99;102328.19;5061306;28;45244;-69